Marianne Danica — OWWO2 — position and weather

sailwx.info

Track history (hours):
 
Tides and Currents Weather Stations Pressure Air Temp Water Temp Dewpoint Dewpoint Depression Visibility Wind Speed Wind Dir Waves Ship Positions

Marianne Danica

Last reported at 2016-May-05 15:33 UTC. Time now 2016-May-05 16:13 UTC.
Position N 51°28' E 002°14'.

Length 71 m; draft 3.4 m.

Type: Cargo ship. MMSI: 219544000.

Date/timePositionNaut miles runAvg speedWind from/ knotsBaromVisibWave heightAir tempDewpointWater temp
2016-May-05 15:33N 51°28' E 002°14'1010.1
2016-May-05 14:33N 51°19' E 002°07'1110.7
2016-May-05 13:33N 51°11' E 001°56'1211.5
2016-May-05 12:33N 51°03' E 001°42'1312.7
2016-May-05 11:33N 50°54' E 001°28'5011.4
2016-May-05 07:09N 50°22' E 000°28'812.6
2016-May-05 06:33N 50°20' E 000°16'1212.2
2016-May-05 05:33N 50°16' W 000°02'1111.4
2016-May-05 04:33N 50°14' W 000°19'1110.6
2016-May-05 03:33N 50°11' W 000°36'9 9.4
2016-May-05 02:33N 50°08' W 000°50'9 8.2
2016-May-05 01:28N 50°06' W 001°03'8 7.2
2016-May-05 00:25N 50°04' W 001°15'6 7.0
2016-May-04 23:33N 50°03' W 001°24'8 7.6
2016-May-04 22:33N 50°01' W 001°35'9 8.9
2016-May-04 21:33N 49°58' W 001°48'1010.4
2016-May-04 20:32N 49°56' W 002°04'1211.8
2016-May-04 19:33N 49°53' W 002°22'1512.1
2016-May-04 18:19N 49°49' W 002°44'911.9
2016-May-04 17:33N 49°46' W 002°57'1211.9
2016-May-04 16:33N 49°40' W 003°13'1211.9
2016-May-04 15:33N 49°34' W 003°29'1211.9
2016-May-04 14:33N 49°29' W 003°45'1211.5
2016-May-04 13:32N 49°23' W 004°01'1211.1
2016-May-04 12:26N 49°16' W 004°17'1110.6
2016-May-04 11:22N 49°11' W 004°32'29 9.5
2016-May-04 08:19N 48°57' W 005°11'7 8.8
2016-May-04 07:32N 48°53' W 005°20'11 8.9
2016-May-04 06:18N 48°48' W 005°34'  
2016-May-01 07:34N 39°09' W 009°52'6 6.2
2016-May-01 06:33N 39°03' W 009°51'6 6.1
2016-May-01 05:33N 38°56' W 009°51'6 5.5
2016-May-01 04:31N 38°51' W 009°51'5 5.5
2016-May-01 03:33N 38°45' W 009°51'5 5.2
2016-May-01 02:33N 38°40' W 009°51'5 4.8
2016-May-01 01:32N 38°35' W 009°49'5 4.9
2016-May-01 00:33N 38°31' W 009°47'5 4.9
2016-Apr-30 23:33N 38°26' W 009°46'4 4.2
2016-Apr-30 22:32N 38°22' W 009°45'4 3.8
2016-Apr-30 21:24N 38°18' W 009°44'3 3.6
2016-Apr-30 20:32N 38°15' W 009°43'3 3.1
2016-Apr-30 19:32N 38°12' W 009°42'3 3.0
2016-Apr-30 18:33N 38°09' W 009°41'3 3.0
2016-Apr-30 17:33N 38°06' W 009°41'3 2.8
2016-Apr-30 16:33N 38°03' W 009°40'3 2.7
2016-Apr-30 15:33N 38°00' W 009°39'3 3.0
2016-Apr-30 14:33N 37°57' W 009°38'4 3.4
2016-Apr-30 13:31N 37°54' W 009°37'4 4.5
2016-Apr-30 12:32N 37°50' W 009°36'11 4.8
2016-Apr-30 10:18N 37°39' W 009°32'214 8.3
2016-Apr-29 08:30N 35°58' W 005°37'11 9.1
2016-Apr-29 07:17N 36°01' W 005°24'6 8.1
2016-Apr-29 06:33N 35°56' W 005°20'3 2.6
2016-Apr-29 05:31N 35°54' W 005°18'0 0.0
2016-Apr-29 04:31N 35°54' W 005°18'0 0.0
2016-Apr-29 03:31N 35°54' W 005°18'0 0.0
2016-Apr-29 02:31N 35°54' W 005°18'0 0.0
2016-Apr-29 01:31N 35°54' W 005°18'0 0.0
2016-Apr-29 00:31N 35°54' W 005°18'3 3.0
2016-Apr-28 23:33N 35°56' W 005°17'262 9.2
2016-Apr-27 19:07N 36°59' W 000°01'16 9.9
2016-Apr-27 17:32N 37°05' E 000°17'18810.3
2016-Apr-26 23:13N 37°42' E 004°09'  
Track history (hours):
 
Tides and Currents Weather Stations Pressure Air Temp Water Temp Dewpoint Dewpoint Depression Visibility Wind Speed Wind Dir Waves Ship Positions

Marianne Danica

Last reported at 2016-May-05 15:33 UTC. Time now 2016-May-05 16:13 UTC.
Position N 51°28' E 002°14'.

Length 71 m; draft 3.4 m.

Type: Cargo ship. MMSI: 219544000.

Date/timePositionNaut miles runAvg speedWind from/ knotsBaromVisibWave heightAir tempDewpointWater temp
2016-May-05 15:33N 51°28' E 002°14'1010.1
2016-May-05 14:33N 51°19' E 002°07'1110.7
2016-May-05 13:33N 51°11' E 001°56'1211.5
2016-May-05 12:33N 51°03' E 001°42'1312.7
2016-May-05 11:33N 50°54' E 001°28'5011.4
2016-May-05 07:09N 50°22' E 000°28'812.6
2016-May-05 06:33N 50°20' E 000°16'1212.2
2016-May-05 05:33N 50°16' W 000°02'1111.4
2016-May-05 04:33N 50°14' W 000°19'1110.6
2016-May-05 03:33N 50°11' W 000°36'9 9.4
2016-May-05 02:33N 50°08' W 000°50'9 8.2
2016-May-05 01:28N 50°06' W 001°03'8 7.2
2016-May-05 00:25N 50°04' W 001°15'6 7.0
2016-May-04 23:33N 50°03' W 001°24'8 7.6
2016-May-04 22:33N 50°01' W 001°35'9 8.9
2016-May-04 21:33N 49°58' W 001°48'1010.4
2016-May-04 20:32N 49°56' W 002°04'1211.8
2016-May-04 19:33N 49°53' W 002°22'1512.1
2016-May-04 18:19N 49°49' W 002°44'911.9
2016-May-04 17:33N 49°46' W 002°57'1211.9
2016-May-04 16:33N 49°40' W 003°13'1211.9
2016-May-04 15:33N 49°34' W 003°29'1211.9
2016-May-04 14:33N 49°29' W 003°45'1211.5
2016-May-04 13:32N 49°23' W 004°01'1211.1
2016-May-04 12:26N 49°16' W 004°17'1110.6
2016-May-04 11:22N 49°11' W 004°32'29 9.5
2016-May-04 08:19N 48°57' W 005°11'7 8.8
2016-May-04 07:32N 48°53' W 005°20'11 8.9
2016-May-04 06:18N 48°48' W 005°34'  
2016-May-01 07:34N 39°09' W 009°52'6 6.2
2016-May-01 06:33N 39°03' W 009°51'6 6.1
2016-May-01 05:33N 38°56' W 009°51'6 5.5
2016-May-01 04:31N 38°51' W 009°51'5 5.5
2016-May-01 03:33N 38°45' W 009°51'5 5.2
2016-May-01 02:33N 38°40' W 009°51'5 4.8
2016-May-01 01:32N 38°35' W 009°49'5 4.9
2016-May-01 00:33N 38°31' W 009°47'5 4.9
2016-Apr-30 23:33N 38°26' W 009°46'4 4.2
2016-Apr-30 22:32N 38°22' W 009°45'4 3.8
2016-Apr-30 21:24N 38°18' W 009°44'3 3.6
2016-Apr-30 20:32N 38°15' W 009°43'3 3.1
2016-Apr-30 19:32N 38°12' W 009°42'3 3.0
2016-Apr-30 18:33N 38°09' W 009°41'3 3.0
2016-Apr-30 17:33N 38°06' W 009°41'3 2.8
2016-Apr-30 16:33N 38°03' W 009°40'3 2.7
2016-Apr-30 15:33N 38°00' W 009°39'3 3.0
2016-Apr-30 14:33N 37°57' W 009°38'4 3.4
2016-Apr-30 13:31N 37°54' W 009°37'4 4.5
2016-Apr-30 12:32N 37°50' W 009°36'11 4.8
2016-Apr-30 10:18N 37°39' W 009°32'214 8.3
2016-Apr-29 08:30N 35°58' W 005°37'11 9.1
2016-Apr-29 07:17N 36°01' W 005°24'6 8.1
2016-Apr-29 06:33N 35°56' W 005°20'3 2.6
2016-Apr-29 05:31N 35°54' W 005°18'0 0.0
2016-Apr-29 04:31N 35°54' W 005°18'0 0.0
2016-Apr-29 03:31N 35°54' W 005°18'0 0.0
2016-Apr-29 02:31N 35°54' W 005°18'0 0.0
2016-Apr-29 01:31N 35°54' W 005°18'0 0.0
2016-Apr-29 00:31N 35°54' W 005°18'3 3.0
2016-Apr-28 23:33N 35°56' W 005°17'262 9.2
2016-Apr-27 19:07N 36°59' W 000°01'16 9.9
2016-Apr-27 17:32N 37°05' E 000°17'18810.3
2016-Apr-26 23:13N 37°42' E 004°09'  

Dump ship's entire track history